Accueil
METAR-TAF:

METAR-TAF

Aéroports :

Concord, New Hampshire, États-Unis

latitude: 43-11-43N, longitude: 071-30-04W, altitude: 105 m

Observation

Le bulletin a été fait il y a 30 minutes, à 02:51 UTC
Vent 4 kt de nord/nord-ouest
Température -7°C
Humidité 62%
Pression 1021 hPa
Visibilité: 16.1 km
Ciel clair

METAR: KCON 110251Z AUTO 34004KT 10SM CLR M07/M13 A3016 RMK AO2 SLP217 T10721133 50001

Heure: 22:21 (03:21 UTC)

Prévision

Le bulletin a été fait il y a 4 heures et 1 minutes, à 23:20 UTC
Prévision valable du 11 à 00 UTC au 11 à 24 UTC
Vent 6 kt de nord/nord-ouest
Visibilité: 10 km
Ciel clair
A partir de 11 à 1200 UTC
Vent kt de nord
Visibilité: 10 km
Nuages fragmentés à une hauteur de 25000 ft

TAF: KCON 102320Z 1100/1124 33006KT P6SM SKC FM111200 00000KT P6SM BKN250

Observations et prévisions météorologiques de plus de 4000 aéroports (messages METAR et TAF).

Les stations disponibles sont représentées par des disques jaunes et rouges sur la carte.

Passer la souris dessus pour voir le nom de la station.

Cliquer dessus pour voir les observations et prévisions météorologiques.

Pour changer de carte: cliquez sur les boutons verts avec une croix noire pour zoomer, sur le bouton vert avec un tiret pour effectuer un zoom arrière, ou sur les flèches vertes pour les cartes adjacentes.


METAR-TAF: